Time;durP1;ratioP1;P1;durP2;ratioP2;P2;SDS_P1;SDS_P2;PMS_P1;PMS_P2;Temp;Humidity;BMP_temperature;BMP_pressure;BME280_temperature;BME280_humidity;BME280_pressure;Samples;Min_cycle;Max_cycle;Signal;HPM_P1;HPM_P2
2023/05/02 00:00:30;;;;;;;23.10;18.07;;;9.50;99.90;;;;;;5034208;28;20569;-47
2023/05/02 00:02:56;;;;;;;26.00;20.43;;;9.40;99.90;;;;;;5034051;28;20197;-46
2023/05/02 00:05:22;;;;;;;25.90;20.23;;;9.40;99.90;;;;;;5034453;28;20175;-45
2023/05/02 00:07:47;;;;;;;26.43;21.33;;;9.30;99.90;;;;;;5034249;28;20263;-45
2023/05/02 00:10:13;;;;;;;26.33;20.03;;;9.30;99.90;;;;;;5034235;28;20181;-45
2023/05/02 00:12:38;;;;;;;27.23;20.60;;;9.30;99.90;;;;;;5034764;28;20204;-46
2023/05/02 00:15:05;;;;;;;26.20;21.17;;;9.20;99.90;;;;;;5034996;28;20188;-47
2023/05/02 00:17:31;;;;;;;28.63;21.63;;;9.20;99.90;;;;;;5036027;28;20181;-46
2023/05/02 00:19:56;;;;;;;31.50;22.30;;;9.10;99.90;;;;;;5047257;28;20176;-46
2023/05/02 00:22:22;;;;;;;35.23;23.33;;;9.10;99.90;;;;;;5049780;28;20219;-46
2023/05/02 00:24:47;;;;;;;32.03;22.57;;;9.10;99.90;;;;;;5034796;28;20732;-47
2023/05/02 00:27:13;;;;;;;31.00;23.37;;;9.10;99.90;;;;;;5033993;28;20254;-46
2023/05/02 00:29:40;;;;;;;38.93;23.60;;;9.10;99.90;;;;;;5033496;28;20180;-47
2023/05/02 00:32:05;;;;;;;33.60;24.17;;;9.10;99.90;;;;;;5033402;28;20664;-45
2023/05/02 00:34:31;;;;;;;34.57;24.60;;;9.10;99.90;;;;;;5033639;28;20267;-48
2023/05/02 00:36:57;;;;;;;37.77;24.43;;;9.10;99.90;;;;;;5033216;28;20287;-46
2023/05/02 00:39:23;;;;;;;36.43;25.10;;;9.10;99.90;;;;;;5033374;28;20237;-47
2023/05/02 00:41:49;;;;;;;34.50;25.40;;;9.10;99.90;;;;;;5033150;28;20211;-45
2023/05/02 00:44:15;;;;;;;38.53;25.00;;;9.10;99.90;;;;;;5015538;28;20189;-47
2023/05/02 00:46:40;;;;;;;39.90;26.27;;;9.10;99.90;;;;;;5033103;28;20218;-47
2023/05/02 00:49:06;;;;;;;36.40;25.60;;;9.10;99.90;;;;;;5033064;28;20204;-45
2023/05/02 00:51:35;;;;;;;39.87;26.33;;;9.10;99.90;;;;;;5033143;28;20190;-46
2023/05/02 00:54:00;;;;;;;41.90;27.10;;;9.20;99.90;;;;;;5033378;28;20270;-47
2023/05/02 00:56:26;;;;;;;42.83;27.93;;;9.20;99.90;;;;;;5033123;28;20610;-46
2023/05/02 00:58:53;;;;;;;41.43;27.07;;;9.20;99.90;;;;;;5033319;28;20235;-45
2023/05/02 01:01:27;;;;;;;40.13;26.53;;;9.30;99.90;;;;;;5033376;28;20203;-47
2023/05/02 01:03:58;;;;;;;44.77;27.80;;;9.40;99.90;;;;;;5036668;28;20204;-47
2023/05/02 01:06:33;;;;;;;42.43;27.50;;;9.40;99.90;;;;;;5037230;28;20188;-49
2023/05/02 01:09:19;;;;;;;44.20;27.80;;;9.40;99.90;;;;;;5037106;28;20183;-46
2023/05/02 01:12:02;;;;;;;40.87;26.97;;;9.50;99.90;;;;;;5036793;28;20181;-45
2023/05/02 01:14:30;;;;;;;40.20;27.07;;;9.50;99.90;;;;;;5036933;28;20164;-47
2023/05/02 01:16:57;;;;;;;45.33;29.23;;;9.50;99.90;;;;;;5036656;28;20223;-47
2023/05/02 01:19:35;;;;;;;40.77;26.47;;;9.60;99.90;;;;;;5036828;28;20219;-47
2023/05/02 01:22:07;;;;;;;41.67;28.70;;;9.60;99.90;;;;;;5036907;28;20218;-47
2023/05/02 01:25:11;;;;;;;42.90;26.97;;;9.60;99.90;;;;;;5036641;28;20641;-47
2023/05/02 01:27:56;;;;;;;44.10;28.07;;;9.60;99.90;;;;;;5037106;28;20194;-46
2023/05/02 01:30:25;;;;;;;37.73;25.80;;;9.60;99.90;;;;;;5036732;28;20199;-48
2023/05/02 01:32:52;;;;;;;44.17;26.20;;;9.60;99.90;;;;;;5036392;28;20208;-47
2023/05/02 01:35:20;;;;;;;39.97;26.37;;;9.60;99.90;;;;;;5036593;28;20208;-47
2023/05/02 01:37:47;;;;;;;40.60;25.73;;;9.60;99.90;;;;;;5018872;28;20191;-47
2023/05/02 01:40:18;;;;;;;43.07;26.53;;;9.60;99.90;;;;;;5036315;28;20180;-45
2023/05/02 01:42:45;;;;;;;40.60;27.53;;;9.60;99.90;;;;;;5036518;28;20214;-47
2023/05/02 01:45:12;;;;;;;40.13;26.57;;;9.70;99.90;;;;;;5036508;28;20570;-45
2023/05/02 01:47:40;;;;;;;44.30;26.37;;;9.70;99.90;;;;;;5036347;28;20207;-48
2023/05/02 01:50:12;;;;;;;42.87;26.43;;;9.70;99.90;;;;;;5036477;28;20546;-47
2023/05/02 01:52:39;;;;;;;41.43;27.17;;;9.70;99.90;;;;;;5036444;28;20679;-48
2023/05/02 01:55:10;;;;;;;40.50;25.57;;;9.70;99.90;;;;;;5036319;28;20195;-46
2023/05/02 01:57:39;;;;;;;41.27;24.90;;;9.80;99.90;;;;;;5036703;28;20264;-47
2023/05/02 02:00:07;;;;;;;41.33;25.30;;;9.80;99.90;;;;;;5036573;28;20192;-46
2023/05/02 02:02:34;;;;;;;45.47;26.10;;;9.80;99.90;;;;;;5036169;28;20201;-48
2023/05/02 02:05:03;;;;;;;41.67;25.97;;;9.80;99.90;;;;;;5036008;28;20184;-47
2023/05/02 02:07:29;;;;;;;39.40;25.23;;;9.80;99.90;;;;;;5036046;28;20226;-47
2023/05/02 02:09:54;;;;;;;39.90;25.77;;;9.80;99.90;;;;;;5036204;28;20227;-46
2023/05/02 02:12:29;;;;;;;41.13;25.73;;;9.80;99.90;;;;;;5035632;28;20200;-45
2023/05/02 02:15:07;;;;;;;40.07;25.63;;;9.80;99.90;;;;;;5017682;28;20195;-48
2023/05/02 02:17:45;;;;;;;41.67;25.53;;;9.80;99.90;;;;;;5036007;28;20527;-47
2023/05/02 02:20:12;;;;;;;42.77;25.57;;;9.90;99.90;;;;;;5035690;28;20181;-48
2023/05/02 02:22:41;;;;;;;47.90;27.70;;;9.90;99.90;;;;;;5035789;28;20238;-46
2023/05/02 02:25:12;;;;;;;49.27;28.73;;;9.80;99.90;;;;;;5035860;28;20214;-45
2023/05/02 02:27:39;;;;;;;45.30;31.03;;;9.90;99.90;;;;;;5035850;28;20181;-47
2023/05/02 02:30:05;;;;;;;53.30;30.40;;;9.90;99.90;;;;;;5035506;28;20184;-44
2023/05/02 02:32:31;;;;;;;51.20;31.43;;;9.90;99.90;;;;;;5035905;28;20211;-45
2023/05/02 02:34:58;;;;;;;58.57;32.47;;;9.90;99.90;;;;;;5035516;28;20183;-46
2023/05/02 02:37:31;;;;;;;51.37;30.57;;;9.90;99.90;;;;;;5035663;28;20198;-46
2023/05/02 02:40:23;;;;;;;51.37;31.13;;;9.90;99.90;;;;;;5035480;28;20162;-46
2023/05/02 02:42:48;;;;;;;50.87;31.23;;;9.90;99.90;;;;;;5035411;28;20596;-45
2023/05/02 02:45:33;;;;;;;47.93;30.90;;;9.90;99.90;;;;;;5035461;28;20191;-45
2023/05/02 02:48:09;;;;;;;49.93;31.03;;;9.90;99.90;;;;;;5035225;28;20199;-47
2023/05/02 02:50:46;;;;;;;52.13;30.33;;;9.90;99.90;;;;;;5035398;28;20176;-45
2023/05/02 02:53:19;;;;;;;49.57;31.23;;;9.90;99.90;;;;;;5035182;28;20199;-47
2023/05/02 02:55:52;;;;;;;51.00;31.17;;;9.90;99.90;;;;;;5035344;28;20609;-46
2023/05/02 02:58:42;;;;;;;51.07;30.83;;;9.90;99.90;;;;;;5035298;28;20180;-46
2023/05/02 03:01:14;;;;;;;51.63;30.77;;;10.00;99.90;;;;;;5035278;28;20630;-46
2023/05/02 03:03:42;;;;;;;48.30;31.37;;;9.90;99.90;;;;;;5034975;28;20681;-46
2023/05/02 03:06:08;;;;;;;50.67;29.73;;;9.90;99.90;;;;;;5034769;28;20191;-46
2023/05/02 03:08:40;;;;;;;50.63;30.70;;;10.00;99.90;;;;;;5017211;28;20196;-46
2023/05/02 03:11:07;;;;;;;45.97;28.63;;;9.90;99.90;;;;;;5017126;28;20192;-46
2023/05/02 03:13:33;;;;;;;46.43;28.50;;;10.00;99.90;;;;;;5035017;28;20315;-47
2023/05/02 03:16:17;;;;;;;45.87;27.83;;;10.00;99.90;;;;;;5034643;28;20328;-47
2023/05/02 03:18:42;;;;;;;48.77;29.23;;;10.00;99.90;;;;;;5035566;28;20169;-46
2023/05/02 03:21:08;;;;;;;49.70;31.03;;;10.00;99.90;;;;;;5035055;28;20184;-45
2023/05/02 03:23:33;;;;;;;48.63;29.63;;;10.00;99.90;;;;;;5035028;28;20231;-45
2023/05/02 03:25:59;;;;;;;52.03;30.83;;;10.00;99.90;;;;;;5034474;28;20177;-46
2023/05/02 03:28:25;;;;;;;49.50;29.00;;;10.00;99.90;;;;;;5035873;28;20239;-47
2023/05/02 03:30:50;;;;;;;47.83;30.30;;;10.00;99.90;;;;;;5036425;28;20173;-46
2023/05/02 03:33:16;;;;;;;46.43;28.20;;;10.00;99.90;;;;;;5024074;28;20227;-47
2023/05/02 03:35:41;;;;;;;49.07;30.13;;;10.00;99.90;;;;;;5045457;28;20239;-46
2023/05/02 03:38:07;;;;;;;45.50;26.50;;;10.00;99.90;;;;;;5020563;28;20636;-49
2023/05/02 03:40:32;;;;;;;41.87;26.17;;;10.10;99.90;;;;;;5034231;28;20180;-46
2023/05/02 03:42:58;;;;;;;46.90;26.67;;;10.00;99.90;;;;;;5034416;28;20197;-48
2023/05/02 03:45:23;;;;;;;42.37;24.90;;;10.00;99.90;;;;;;5034416;28;20188;-47
2023/05/02 03:47:49;;;;;;;43.40;23.67;;;10.00;99.90;;;;;;5034125;28;20208;-47
2023/05/02 03:50:14;;;;;;;42.87;24.07;;;10.10;99.90;;;;;;5034053;28;20189;-48
2023/05/02 03:52:40;;;;;;;42.07;22.87;;;10.10;99.90;;;;;;5033841;28;20231;-48
2023/05/02 03:55:06;;;;;;;37.87;22.83;;;10.10;99.90;;;;;;5033802;28;20190;-46
2023/05/02 03:57:32;;;;;;;34.30;22.23;;;10.10;99.90;;;;;;5034460;28;20193;-47
2023/05/02 03:59:58;;;;;;;38.13;21.93;;;10.10;99.90;;;;;;5034095;28;20548;-45
2023/05/02 04:02:24;;;;;;;37.07;21.07;;;10.00;99.90;;;;;;5016353;28;20215;-49
2023/05/02 04:04:50;;;;;;;35.30;21.77;;;10.00;99.90;;;;;;5033783;28;20699;-47
2023/05/02 04:07:18;;;;;;;38.03;21.43;;;10.00;99.90;;;;;;5033690;28;20183;-48
2023/05/02 04:09:44;;;;;;;35.47;20.77;;;10.00;99.90;;;;;;5033602;28;20223;-47
2023/05/02 04:12:09;;;;;;;38.63;20.73;;;10.00;99.90;;;;;;5033629;28;20212;-46
2023/05/02 04:14:35;;;;;;;32.43;20.03;;;10.00;99.90;;;;;;5034017;28;20617;-45
2023/05/02 04:17:00;;;;;;;33.03;19.23;;;10.00;99.90;;;;;;5033471;28;20208;-46
2023/05/02 04:19:26;;;;;;;35.57;19.47;;;10.00;99.90;;;;;;5033604;28;20172;-47
2023/05/02 04:21:52;;;;;;;31.27;18.30;;;10.00;99.90;;;;;;5034102;28;20195;-45
2023/05/02 04:24:17;;;;;;;28.83;18.07;;;10.00;99.90;;;;;;5034013;28;20176;-46
2023/05/02 04:26:43;;;;;;;30.70;18.17;;;10.00;99.90;;;;;;5033610;28;20180;-46
2023/05/02 04:29:08;;;;;;;24.93;16.57;;;10.00;99.90;;;;;;5033804;28;20230;-46
2023/05/02 04:31:35;;;;;;;34.13;17.50;;;10.00;99.90;;;;;;5033490;28;20196;-46
2023/05/02 04:34:00;;;;;;;27.77;16.40;;;10.00;99.90;;;;;;5033431;28;20645;-47
2023/05/02 04:36:27;;;;;;;27.40;15.70;;;10.00;99.90;;;;;;5032989;28;20212;-45
2023/05/02 04:38:53;;;;;;;29.37;16.33;;;10.00;99.90;;;;;;5033326;28;20667;-46
2023/05/02 04:41:18;;;;;;;25.60;15.27;;;10.00;99.90;;;;;;5033300;28;20188;-46
2023/05/02 04:43:44;;;;;;;23.27;13.90;;;10.00;99.90;;;;;;5016157;28;20207;-47
2023/05/02 04:46:10;;;;;;;24.90;13.67;;;10.00;99.90;;;;;;5033336;28;20263;-46
2023/05/02 04:48:35;;;;;;;23.57;13.27;;;10.00;99.90;;;;;;5033198;28;20668;-48
2023/05/02 04:51:01;;;;;;;21.20;12.93;;;10.10;99.90;;;;;;5033765;28;20515;-47
2023/05/02 04:53:27;;;;;;;23.57;13.47;;;10.00;99.90;;;;;;5033255;28;20193;-46
2023/05/02 04:55:53;;;;;;;20.90;12.17;;;10.00;99.90;;;;;;5033093;28;20207;-46
2023/05/02 04:58:18;;;;;;;20.00;12.17;;;10.00;99.90;;;;;;5033266;28;20613;-46
2023/05/02 05:00:44;;;;;;;20.10;12.47;;;10.00;99.90;;;;;;5033380;28;20179;-45
2023/05/02 05:03:10;;;;;;;21.07;13.00;;;10.00;99.90;;;;;;5033350;28;20200;-48
2023/05/02 05:05:35;;;;;;;22.53;13.07;;;10.00;99.90;;;;;;5033369;28;20185;-46
2023/05/02 05:08:01;;;;;;;22.87;13.10;;;10.00;99.90;;;;;;5033284;28;20220;-47
2023/05/02 05:10:27;;;;;;;25.03;13.30;;;10.00;99.90;;;;;;5034152;28;20211;-46
2023/05/02 05:12:52;;;;;;;23.83;12.23;;;10.00;99.90;;;;;;5033129;28;20197;-46
2023/05/02 05:15:21;;;;;;;18.40;11.90;;;10.00;99.90;;;;;;5033989;28;20212;-45
2023/05/02 05:17:46;;;;;;;20.53;12.30;;;10.00;99.90;;;;;;5032991;28;20181;-48
2023/05/02 05:20:12;;;;;;;21.10;13.17;;;10.00;99.90;;;;;;5033318;28;20168;-46
2023/05/02 05:22:41;;;;;;;22.73;12.37;;;10.00;99.90;;;;;;5033507;28;20219;-45
2023/05/02 05:25:10;;;;;;;23.80;12.70;;;10.00;99.90;;;;;;5033666;28;20184;-46
2023/05/02 05:27:36;;;;;;;26.07;12.43;;;10.00;99.90;;;;;;5033125;28;20655;-46
2023/05/02 05:30:05;;;;;;;18.30;11.90;;;10.00;99.90;;;;;;5033150;28;20184;-47
2023/05/02 05:32:34;;;;;;;20.43;12.63;;;10.00;99.90;;;;;;5032764;28;20238;-45
2023/05/02 05:35:00;;;;;;;22.93;11.40;;;10.00;99.90;;;;;;5033122;28;20252;-46
2023/05/02 05:37:26;;;;;;;21.73;11.77;;;10.00;99.90;;;;;;5032842;28;20263;-46
2023/05/02 05:39:51;;;;;;;25.27;12.47;;;10.00;99.90;;;;;;5015081;28;20184;-47
2023/05/02 05:42:17;;;;;;;20.63;11.70;;;10.00;99.90;;;;;;5032708;28;20208;-45
2023/05/02 05:44:42;;;;;;;19.30;11.20;;;10.00;99.90;;;;;;5032736;28;20175;-47
2023/05/02 05:47:08;;;;;;;20.13;12.70;;;10.00;99.90;;;;;;5015350;28;20180;-46
2023/05/02 05:49:35;;;;;;;21.83;12.47;;;10.00;99.90;;;;;;5035448;28;20188;-48
2023/05/02 05:52:01;;;;;;;21.53;12.67;;;10.00;99.90;;;;;;5036576;28;20266;-46
2023/05/02 05:54:27;;;;;;;20.73;11.83;;;10.00;99.90;;;;;;5036251;28;20544;-45
2023/05/02 05:56:53;;;;;;;21.03;11.93;;;10.10;99.90;;;;;;5036678;28;20202;-47
2023/05/02 05:59:18;;;;;;;21.50;12.63;;;10.10;99.90;;;;;;5036153;28;20180;-46
2023/05/02 06:01:44;;;;;;;16.80;11.73;;;10.10;99.90;;;;;;5035957;28;20187;-46
2023/05/02 06:04:10;;;;;;;18.53;11.67;;;10.10;99.90;;;;;;5018346;28;20184;-44
2023/05/02 06:06:35;;;;;;;21.30;12.70;;;10.10;99.90;;;;;;5036023;28;20183;-48
2023/05/02 06:09:01;;;;;;;18.83;12.13;;;10.10;99.90;;;;;;5035895;28;20187;-46
2023/05/02 06:11:27;;;;;;;25.03;13.00;;;10.10;99.90;;;;;;5036197;28;20217;-47
2023/05/02 06:13:53;;;;;;;19.27;12.70;;;10.20;99.90;;;;;;5035771;28;20221;-47
2023/05/02 06:16:19;;;;;;;21.20;12.77;;;10.30;99.90;;;;;;5035802;28;20208;-47
2023/05/02 06:18:45;;;;;;;22.07;12.27;;;10.30;99.90;;;;;;5035782;28;20184;-47
2023/05/02 06:21:11;;;;;;;20.80;12.10;;;10.40;99.90;;;;;;5035774;28;20218;-48
2023/05/02 06:23:37;;;;;;;21.40;12.23;;;10.40;99.90;;;;;;5035559;28;20200;-46
2023/05/02 06:26:03;;;;;;;22.60;12.73;;;10.30;99.90;;;;;;5035631;28;20184;-46
2023/05/02 06:28:29;;;;;;;19.37;11.57;;;10.30;99.90;;;;;;5035859;28;20181;-48
2023/05/02 06:31:00;;;;;;;19.53;11.50;;;10.40;99.90;;;;;;5035773;28;20181;-46
2023/05/02 06:33:27;;;;;;;19.20;11.20;;;10.30;99.90;;;;;;5035729;28;20254;-46
2023/05/02 06:35:53;;;;;;;16.57;11.00;;;10.30;99.90;;;;;;5035395;28;20242;-46
2023/05/02 06:38:18;;;;;;;16.20;9.93;;;10.30;99.90;;;;;;5035671;28;20181;-47
2023/05/02 06:40:44;;;;;;;15.90;10.50;;;10.30;99.90;;;;;;5035406;28;20170;-46
2023/05/02 06:43:10;;;;;;;21.83;10.50;;;10.30;99.90;;;;;;5035812;28;20283;-47
2023/05/02 06:45:36;;;;;;;12.70;7.67;;;10.30;99.90;;;;;;5035652;28;20197;-46
2023/05/02 06:48:02;;;;;;;9.97;5.30;;;10.30;99.90;;;;;;5040022;28;20197;-49
2023/05/02 06:50:28;;;;;;;13.30;5.23;;;10.20;99.90;;;;;;5053007;28;20235;-49
2023/05/02 06:52:54;;;;;;;11.07;5.13;;;10.10;99.90;;;;;;5047024;28;20197;-50
2023/05/02 06:55:20;;;;;;;7.47;4.73;;;10.10;99.90;;;;;;5035121;28;20182;-51
2023/05/02 06:57:46;;;;;;;6.07;4.17;;;10.10;99.90;;;;;;5035340;28;20173;-47
2023/05/02 07:00:12;;;;;;;10.73;4.20;;;10.00;99.90;;;;;;5035009;28;20539;-51
2023/05/02 07:02:37;;;;;;;8.73;3.83;;;10.10;99.90;;;;;;5035067;28;20246;-50
2023/05/02 07:05:03;;;;;;;8.97;4.10;;;10.10;99.90;;;;;;5017098;28;20247;-50
2023/05/02 07:07:29;;;;;;;6.57;4.30;;;10.10;99.90;;;;;;5034794;28;20184;-51
2023/05/02 07:09:54;;;;;;;7.20;2.93;;;10.10;99.90;;;;;;5034687;28;20223;-49
2023/05/02 07:12:20;;;;;;;6.37;2.80;;;10.10;99.90;;;;;;5034623;28;20193;-50
2023/05/02 07:14:46;;;;;;;8.83;2.87;;;10.20;99.90;;;;;;5034682;28;20169;-49
2023/05/02 07:17:12;;;;;;;5.70;2.80;;;10.20;99.90;;;;;;5034530;28;20203;-51
2023/05/02 07:19:37;;;;;;;4.37;2.40;;;10.30;99.90;;;;;;5034593;28;20176;-52
2023/05/02 07:22:03;;;;;;;5.90;2.60;;;10.30;99.90;;;;;;5034437;28;20204;-49
2023/05/02 07:24:29;;;;;;;4.93;1.87;;;10.30;99.90;;;;;;5016763;28;20177;-51
2023/05/02 07:26:54;;;;;;;6.57;2.93;;;10.40;99.90;;;;;;5034529;28;20188;-49
2023/05/02 07:29:20;;;;;;;5.20;2.20;;;10.50;99.90;;;;;;5034731;28;20181;-49
2023/05/02 07:31:45;;;;;;;4.67;2.10;;;10.60;99.90;;;;;;5034489;28;20238;-50
2023/05/02 07:34:11;;;;;;;6.80;2.57;;;10.70;99.90;;;;;;5034310;28;20181;-50
2023/05/02 07:36:38;;;;;;;9.87;2.57;;;10.70;99.90;;;;;;5034358;28;20203;-49
2023/05/02 07:39:03;;;;;;;5.03;2.50;;;10.80;99.90;;;;;;5034255;28;20181;-49
2023/05/02 07:41:29;;;;;;;7.73;2.20;;;10.90;99.90;;;;;;5034208;28;20210;-50
2023/05/02 07:43:56;;;;;;;4.57;2.17;;;11.00;99.90;;;;;;5033941;28;20231;-50
2023/05/02 07:46:22;;;;;;;3.67;2.00;;;11.10;99.90;;;;;;5016321;28;20181;-50
2023/05/02 07:48:47;;;;;;;4.83;2.10;;;11.10;99.90;;;;;;5033917;28;20188;-51
2023/05/02 07:51:13;;;;;;;3.03;1.80;;;11.20;99.90;;;;;;5034040;28;20680;-52
2023/05/02 07:53:39;;;;;;;4.67;1.87;;;11.20;99.90;;;;;;5034110;28;20291;-50
2023/05/02 07:56:05;;;;;;;6.33;1.73;;;11.30;99.90;;;;;;5034181;28;20568;-50
2023/05/02 07:58:31;;;;;;;4.53;1.93;;;11.30;99.90;;;;;;5034171;28;20547;-49
2023/05/02 08:00:57;;;;;;;5.50;1.87;;;11.40;99.90;;;;;;5033801;28;20176;-50
2023/05/02 08:03:23;;;;;;;2.63;1.70;;;11.40;99.90;;;;;;5033707;28;20192;-50
2023/05/02 08:05:48;;;;;;;6.73;1.93;;;11.40;99.90;;;;;;5033712;28;20189;-51
2023/05/02 08:08:14;;;;;;;6.00;2.00;;;11.50;99.90;;;;;;5033736;28;20191;-51
2023/05/02 08:10:39;;;;;;;4.53;1.77;;;11.60;99.90;;;;;;5033413;28;20180;-50
2023/05/02 08:13:05;;;;;;;5.73;2.30;;;11.50;99.90;;;;;;5033546;28;20283;-52
2023/05/02 08:15:31;;;;;;;5.73;2.20;;;11.50;99.90;;;;;;5033819;28;20240;-51
2023/05/02 08:17:56;;;;;;;4.53;1.87;;;11.50;99.90;;;;;;5033948;28;20659;-52
2023/05/02 08:20:22;;;;;;;4.20;1.87;;;11.60;99.90;;;;;;5033687;28;20659;-50
2023/05/02 08:22:47;;;;;;;6.83;2.27;;;11.60;99.90;;;;;;5033639;28;20192;-50
2023/05/02 08:25:13;;;;;;;7.20;2.00;;;11.60;99.90;;;;;;5033573;28;20215;-49
2023/05/02 08:27:38;;;;;;;9.90;2.73;;;11.60;99.90;;;;;;5033737;28;20165;-49
2023/05/02 08:30:05;;;;;;;6.77;2.23;;;11.70;99.90;;;;;;5033416;28;20234;-51
2023/05/02 08:32:31;;;;;;;7.80;2.10;;;11.80;99.90;;;;;;5033620;28;20223;-51
2023/05/02 08:34:57;;;;;;;3.10;1.70;;;11.90;99.90;;;;;;5033680;28;20199;-49
2023/05/02 08:37:23;;;;;;;3.97;1.60;;;11.90;99.90;;;;;;5033514;28;20208;-50
2023/05/02 08:39:48;;;;;;;5.07;2.10;;;12.00;99.90;;;;;;5033257;28;20177;-49
2023/05/02 08:42:14;;;;;;;9.13;2.57;;;12.00;99.90;;;;;;5033762;28;20232;-50
2023/05/02 08:44:40;;;;;;;6.93;2.20;;;12.00;99.90;;;;;;5033517;28;20188;-49
2023/05/02 08:47:08;;;;;;;4.97;2.20;;;12.00;99.90;;;;;;5033238;28;20250;-50
2023/05/02 08:49:35;;;;;;;6.70;2.10;;;12.00;99.90;;;;;;5033089;28;20214;-51
2023/05/02 08:52:05;;;;;;;7.23;2.03;;;12.00;99.90;;;;;;5033367;28;20286;-51
2023/05/02 08:54:31;;;;;;;5.87;2.17;;;12.00;99.90;;;;;;5033487;28;20603;-52
2023/05/02 08:56:58;;;;;;;7.30;2.40;;;12.10;99.90;;;;;;5033165;28;20204;-49
2023/05/02 08:59:24;;;;;;;5.30;1.97;;;12.10;99.90;;;;;;5033954;28;20268;-50
2023/05/02 09:01:57;;;;;;;8.10;2.27;;;12.10;99.90;;;;;;5033252;28;20178;-51
2023/05/02 09:04:26;;;;;;;5.83;2.03;;;12.20;99.90;;;;;;5033138;28;20248;-51
2023/05/02 09:06:51;;;;;;;7.63;2.03;;;12.30;99.90;;;;;;5033301;28;20184;-52
2023/05/02 09:09:17;;;;;;;4.93;1.90;;;12.30;99.90;;;;;;5033026;28;20763;-51
2023/05/02 09:11:46;;;;;;;5.17;1.60;;;12.30;99.90;;;;;;5033261;28;20185;-51
2023/05/02 09:14:15;;;;;;;4.50;2.03;;;12.20;99.90;;;;;;5033044;28;20331;-52
2023/05/02 09:16:41;;;;;;;5.50;1.73;;;12.10;99.90;;;;;;5033227;28;20258;-52
2023/05/02 09:19:07;;;;;;;6.87;2.20;;;12.00;99.90;;;;;;5033195;28;20644;-52
2023/05/02 09:21:38;;;;;;;10.13;1.90;;;11.90;99.90;;;;;;5015359;28;20181;-50
2023/05/02 09:24:18;;;;;;;6.70;2.00;;;11.70;99.90;;;;;;5035475;28;20185;-51
2023/05/02 09:27:03;;;;;;;7.93;2.13;;;11.50;99.90;;;;;;5037094;28;20193;-51
2023/05/02 09:29:34;;;;;;;6.13;2.30;;;11.30;99.90;;;;;;5036845;28;20157;-52
2023/05/02 09:32:01;;;;;;;5.97;2.23;;;11.20;99.90;;;;;;5036801;28;20291;-50
2023/05/02 09:34:27;;;;;;;5.57;2.00;;;11.10;99.90;;;;;;5036553;28;20196;-50
2023/05/02 09:36:56;;;;;;;5.90;1.90;;;11.00;99.90;;;;;;5036433;28;20209;-50
2023/05/02 09:39:27;;;;;;;5.37;1.80;;;11.00;99.90;;;;;;5036411;28;20239;-51
2023/05/02 09:41:53;;;;;;;6.00;2.07;;;11.00;99.90;;;;;;5036307;28;20188;-52
2023/05/02 09:44:21;;;;;;;5.77;2.10;;;11.10;99.90;;;;;;5036644;28;20184;-51
2023/05/02 09:46:48;;;;;;;7.43;2.63;;;11.10;99.90;;;;;;5036309;28;20267;-51
2023/05/02 09:49:17;;;;;;;9.10;2.57;;;11.10;99.90;;;;;;5036202;28;20275;-50
2023/05/02 09:51:43;;;;;;;6.33;2.27;;;11.00;99.90;;;;;;5036176;28;20586;-51
2023/05/02 09:54:10;;;;;;;7.33;2.77;;;11.00;99.90;;;;;;5036195;28;20208;-51
2023/05/02 09:56:52;;;;;;;8.13;2.77;;;11.00;99.90;;;;;;5035874;28;20683;-50
2023/05/02 09:59:18;;;;;;;5.27;2.10;;;10.90;99.90;;;;;;5036128;28;20235;-52
2023/05/02 10:01:43;;;;;;;10.43;3.10;;;10.90;99.90;;;;;;5035964;28;20641;-49
2023/05/02 10:04:15;;;;;;;3.77;2.47;;;10.90;99.90;;;;;;5036230;28;20652;-51
2023/05/02 10:06:42;;;;;;;9.03;2.87;;;10.90;99.90;;;;;;5036218;28;20193;-52
2023/05/02 10:09:10;;;;;;;8.73;2.40;;;10.90;99.90;;;;;;5035873;28;20196;-51
2023/05/02 10:11:49;;;;;;;8.63;2.40;;;10.90;99.90;;;;;;5018042;28;20247;-51
2023/05/02 10:14:18;;;;;;;9.17;2.63;;;10.90;99.90;;;;;;5035945;28;20161;-51
2023/05/02 10:17:12;;;;;;;7.20;2.53;;;10.90;99.90;;;;;;5039975;28;20201;-51
2023/05/02 10:19:58;;;;;;;6.40;2.80;;;11.00;99.90;;;;;;5013011;28;20181;-50
2023/05/02 10:22:25;;;;;;;6.07;2.70;;;11.00;99.90;;;;;;5039505;28;20192;-50
2023/05/02 10:24:52;;;;;;;9.40;2.80;;;11.10;99.90;;;;;;5036201;28;20169;-50
2023/05/02 10:27:18;;;;;;;5.90;2.13;;;11.10;99.90;;;;;;5035674;28;20217;-52
2023/05/02 10:29:45;;;;;;;5.33;2.43;;;11.10;99.90;;;;;;5036113;28;20637;-50
2023/05/02 10:32:13;;;;;;;6.13;2.47;;;11.20;99.90;;;;;;5035512;28;20235;-50
2023/05/02 10:34:40;;;;;;;7.97;2.70;;;11.20;99.90;;;;;;5017265;28;20185;-50
2023/05/02 10:37:06;;;;;;;13.17;3.13;;;11.30;99.90;;;;;;5035724;28;20196;-51
2023/05/02 10:39:32;;;;;;;6.70;2.60;;;11.30;99.90;;;;;;5035577;28;20176;-51
2023/05/02 10:41:59;;;;;;;8.33;2.77;;;11.40;99.90;;;;;;5035540;28;20200;-50
2023/05/02 10:44:45;;;;;;;8.13;3.17;;;11.50;99.90;;;;;;5035475;28;20718;-52
2023/05/02 10:47:21;;;;;;;4.97;2.70;;;11.60;99.90;;;;;;5035601;28;20161;-51
2023/05/02 10:50:04;;;;;;;8.70;3.10;;;11.60;99.90;;;;;;5035425;28;20556;-50
2023/05/02 10:52:33;;;;;;;8.23;3.30;;;11.60;99.90;;;;;;5035498;28;20292;-51
2023/05/02 10:55:22;;;;;;;5.90;2.50;;;11.70;99.90;;;;;;5035408;28;20185;-50
2023/05/02 10:57:59;;;;;;;8.80;2.87;;;11.80;99.90;;;;;;5022949;28;20197;-51
2023/05/02 11:00:32;;;;;;;9.63;2.97;;;11.80;99.90;;;;;;5034966;28;20719;-50
2023/05/02 11:02:58;;;;;;;7.17;2.73;;;11.90;99.90;;;;;;5035162;28;20784;-51
2023/05/02 11:05:25;;;;;;;6.53;2.60;;;12.10;99.90;;;;;;5035025;28;20165;-50
2023/05/02 11:08:16;;;;;;;6.93;2.83;;;12.20;99.90;;;;;;5034757;28;20169;-52
2023/05/02 11:10:42;;;;;;;9.33;2.77;;;12.30;99.90;;;;;;5035612;28;20193;-50
2023/05/02 11:13:08;;;;;;;6.90;2.60;;;12.40;99.90;;;;;;5035757;28;20727;-49
2023/05/02 11:15:39;;;;;;;7.10;2.63;;;12.50;99.90;;;;;;5018923;28;20266;-51
2023/05/02 11:18:06;;;;;;;10.27;2.93;;;12.80;99.90;;;;;;5035237;28;20169;-51
2023/05/02 11:20:33;;;;;;;8.40;2.83;;;12.80;99.90;;;;;;5034578;28;20173;-52
2023/05/02 11:23:24;;;;;;;7.03;2.40;;;13.00;99.90;;;;;;5034677;28;20204;-48
2023/05/02 11:25:51;;;;;;;5.70;3.23;;;13.20;99.90;;;;;;5035055;28;20166;-51
2023/05/02 11:28:35;;;;;;;6.77;3.20;;;13.30;99.90;;;;;;5016805;28;20271;-48
2023/05/02 11:31:01;;;;;;;7.00;2.83;;;13.30;99.90;;;;;;5034571;28;20179;-50
2023/05/02 11:33:28;;;;;;;5.90;2.50;;;13.30;99.90;;;;;;5034297;28;20283;-51
2023/05/02 11:35:55;;;;;;;6.10;2.93;;;13.40;99.90;;;;;;5016534;28;20208;-50
2023/05/02 11:38:21;;;;;;;9.00;3.07;;;13.30;99.90;;;;;;5034252;28;20711;-49
2023/05/02 11:40:57;;;;;;;12.30;3.37;;;13.40;99.90;;;;;;5034406;28;20176;-50
2023/05/02 11:43:25;;;;;;;12.67;3.20;;;13.50;99.90;;;;;;5034651;28;20207;-50
2023/05/02 11:45:52;;;;;;;9.73;2.90;;;13.40;99.90;;;;;;5033488;28;20157;-50
2023/05/02 11:48:19;;;;;;;5.77;3.10;;;13.20;99.90;;;;;;5033897;28;20227;-50
2023/05/02 11:50:47;;;;;;;8.80;3.00;;;13.20;99.90;;;;;;5034273;28;20264;-50
2023/05/02 11:53:15;;;;;;;6.87;2.83;;;13.10;99.90;;;;;;5034166;28;20212;-51
2023/05/02 11:55:48;;;;;;;6.90;2.53;;;13.10;99.90;;;;;;5033889;28;20231;-51
2023/05/02 11:58:16;;;;;;;9.20;3.00;;;13.10;99.90;;;;;;5034023;28;20270;-50
2023/05/02 12:00:45;;;;;;;6.00;2.70;;;13.20;99.90;;;;;;5033843;28;20714;-47
2023/05/02 12:03:23;;;;;;;7.00;3.63;;;13.40;99.90;;;;;;5034011;28;20247;-45
2023/05/02 12:05:50;;;;;;;5.63;2.53;;;13.60;99.90;;;;;;5030960;28;20199;-51
2023/05/02 12:08:26;;;;;;;8.03;2.63;;;13.80;99.90;;;;;;5033483;28;20177;-46
2023/05/02 12:10:54;;;;;;;8.00;3.17;;;14.00;99.90;;;;;;5033226;28;20191;-46
2023/05/02 12:13:21;;;;;;;8.77;2.60;;;14.00;99.90;;;;;;5033218;28;20209;-45
2023/05/02 12:15:49;;;;;;;9.90;2.63;;;14.00;99.90;;;;;;5034337;28;20549;-48
2023/05/02 12:18:15;;;;;;;7.60;2.90;;;13.90;99.90;;;;;;5034264;28;20559;-46
2023/05/02 12:20:41;;;;;;;7.57;3.23;;;13.70;99.90;;;;;;5016502;28;20180;-45
2023/05/02 12:23:07;;;;;;;9.20;2.77;;;13.60;99.90;;;;;;5034087;28;20255;-46
2023/05/02 12:25:38;;;;;;;16.00;3.23;;;13.60;99.90;;;;;;5015901;28;20187;-46
2023/05/02 12:28:04;;;;;;;6.40;2.83;;;13.50;99.90;;;;;;5033509;28;20169;-46
2023/05/02 12:30:30;;;;;;;11.13;3.00;;;13.50;99.90;;;;;;5033431;28;20180;-46
2023/05/02 12:33:00;;;;;;;7.00;2.60;;;13.50;99.90;;;;;;5033346;28;20568;-46
2023/05/02 12:35:27;;;;;;;8.97;3.20;;;13.60;99.90;;;;;;5033296;28;20180;-47
2023/05/02 12:37:55;;;;;;;8.17;3.20;;;13.60;99.90;;;;;;5033580;28;20184;-45
2023/05/02 12:40:21;;;;;;;8.43;3.20;;;13.80;99.90;;;;;;5033486;28;20252;-46
2023/05/02 12:43:03;;;;;;;12.40;3.67;;;13.90;99.90;;;;;;5033186;28;20745;-46